createdAt,value
2022-10-14T00:00:02.336Z,101990.72
2022-10-14T00:02:40.879Z,101992.47
2022-10-14T00:05:10.216Z,101991.59
2022-10-14T00:07:38.313Z,101987.19
2022-10-14T00:10:08.924Z,101981.91
2022-10-14T00:12:36.687Z,101984.56
2022-10-14T00:15:07.377Z,101979.28
2022-10-14T00:17:38.318Z,101980.16
2022-10-14T00:20:11.955Z,101985.47
2022-10-14T00:22:39.349Z,101983.66
2022-10-14T00:25:08.812Z,101985.44
2022-10-14T00:27:39.009Z,101990.72
2022-10-14T00:30:11.126Z,101983.69
2022-10-14T00:32:38.389Z,101982.84
2022-10-14T00:35:06.207Z,101980.19
2022-10-14T00:37:33.748Z,101981.94
2022-10-14T00:40:01.387Z,101976.63
2022-10-14T00:42:35.923Z,101977.50
2022-10-14T00:45:15.382Z,101982.78
2022-10-14T00:47:48.711Z,101988.97
2022-10-14T00:50:26.289Z,101972.22
2022-10-14T00:52:56.634Z,101976.63
2022-10-14T00:55:30.536Z,101981.03
2022-10-14T00:58:01.081Z,101977.53
2022-10-14T01:00:30.798Z,101977.53
2022-10-14T01:03:24.110Z,101970.50
2022-10-14T01:06:31.716Z,101974.03
2022-10-14T01:09:04.291Z,101971.38
2022-10-14T01:12:10.060Z,101972.25
2022-10-14T01:15:24.835Z,101967.88
2022-10-14T01:18:34.209Z,101962.59
2022-10-14T01:21:10.417Z,101955.53
2022-10-14T01:24:14.893Z,101958.16
2022-10-14T01:27:11.079Z,101960.81
2022-10-14T01:30:26.354Z,101955.56
2022-10-14T01:33:34.452Z,101955.53
2022-10-14T01:36:21.781Z,101952.91
2022-10-14T01:39:13.450Z,101952.91
2022-10-14T01:42:00.368Z,101944.97
2022-10-14T01:44:38.111Z,101943.22
2022-10-14T01:47:20.935Z,101937.06
2022-10-14T01:50:05.079Z,101937.06
2022-10-14T01:52:47.864Z,101930.88
2022-10-14T01:55:22.582Z,101923.81
2022-10-14T01:58:09.028Z,101920.28
2022-10-14T02:00:48.671Z,101917.63
2022-10-14T02:03:19.746Z,101922.03
2022-10-14T02:05:58.380Z,101912.34
2022-10-14T02:08:42.295Z,101900.91
2022-10-14T02:11:17.593Z,101901.78
2022-10-14T02:14:26.257Z,101906.22
2022-10-14T02:17:02.395Z,101907.09
2022-10-14T02:19:44.983Z,101907.94
2022-10-14T02:23:07.046Z,101896.50
2022-10-14T02:25:41.986Z,101900.03
2022-10-14T02:28:31.720Z,101895.63
2022-10-14T02:31:19.234Z,101901.78
2022-10-14T02:33:55.344Z,101900.03
2022-10-14T02:36:32.554Z,101894.75
2022-10-14T02:39:08.538Z,101879.78
2022-10-14T02:41:42.245Z,101876.25
2022-10-14T02:44:12.556Z,101870.97
2022-10-14T02:46:47.702Z,101878.03
2022-10-14T02:49:19.660Z,101872.75
2022-10-14T02:51:50.365Z,101865.69
2022-10-14T02:54:18.680Z,101871.84
2022-10-14T02:56:49.408Z,101868.34
2022-10-14T02:59:20.246Z,101873.59
2022-10-14T03:01:58.996Z,101865.66
2022-10-14T03:04:34.107Z,101869.19
2022-10-14T03:07:07.958Z,101866.53
2022-10-14T03:09:47.749Z,101865.59
2022-10-14T03:12:23.802Z,101859.44
2022-10-14T03:15:00.372Z,101868.22
2022-10-14T03:17:37.339Z,101863.81
2022-10-14T03:20:16.381Z,101877.00
2022-10-14T03:23:02.389Z,101869.09
2022-10-14T03:28:41.116Z,101867.31
2022-10-14T03:31:27.574Z,101861.06
2022-10-14T03:34:12.742Z,101864.63
2022-10-14T03:36:56.934Z,101863.75
2022-10-14T03:39:41.620Z,101872.50
2022-10-14T03:42:19.953Z,101865.44
2022-10-14T03:44:54.730Z,101876.84
2022-10-14T03:47:30.556Z,101876.00
2022-10-14T03:50:03.540Z,101881.22
2022-10-14T03:52:46.591Z,101875.13
2022-10-14T03:55:33.105Z,101865.47
2022-10-14T03:58:05.241Z,101863.69
2022-10-14T04:00:37.427Z,101861.94
2022-10-14T04:03:23.998Z,101861.06
2022-10-14T04:05:52.525Z,101858.38
2022-10-14T04:08:26.516Z,101872.50
2022-10-14T04:11:11.330Z,101858.44
2022-10-14T04:14:14.428Z,101870.72
2022-10-14T04:16:52.328Z,101867.22
2022-10-14T04:19:29.278Z,101870.78
2022-10-14T04:22:05.343Z,101876.03
2022-10-14T04:24:37.190Z,101874.28
2022-10-14T04:27:08.742Z,101873.41
2022-10-14T04:29:54.660Z,101870.72
2022-10-14T04:32:31.515Z,101857.59
2022-10-14T04:35:10.679Z,101858.47
2022-10-14T04:37:49.314Z,101852.28
2022-10-14T04:40:29.221Z,101841.78
2022-10-14T04:43:04.359Z,101847.94
2022-10-14T04:45:41.323Z,101838.13
2022-10-14T04:51:30.419Z,101843.50
2022-10-14T04:54:28.419Z,101839.03
2022-10-14T04:57:05.064Z,101846.03
2022-10-14T04:59:39.553Z,101847.84
2022-10-14T05:02:12.742Z,101855.75
2022-10-14T05:05:02.762Z,101854.88
2022-10-14T05:07:38.003Z,101852.28
2022-10-14T05:10:42.628Z,101843.47
2022-10-14T05:13:23.594Z,101849.63
2022-10-14T05:16:06.698Z,101851.34
2022-10-14T05:18:38.997Z,101850.50
2022-10-14T05:21:15.741Z,101854.91
2022-10-14T05:24:09.218Z,101859.31
2022-10-14T05:26:48.948Z,101852.28
2022-10-14T05:29:26.936Z,101857.53
2022-10-14T05:31:58.239Z,101841.72
2022-10-14T05:34:46.385Z,101846.97
2022-10-14T05:37:25.158Z,101846.06
2022-10-14T05:39:58.209Z,101845.25
2022-10-14T05:42:27.692Z,101847.00
2022-10-14T05:44:58.229Z,101851.41
2022-10-14T05:47:27.214Z,101850.50
2022-10-14T05:49:59.588Z,101844.38
2022-10-14T05:52:33.499Z,101841.72
2022-10-14T05:55:05.509Z,101840.84
2022-10-14T05:57:34.133Z,101848.75
2022-10-14T06:00:02.256Z,101855.75
2022-10-14T06:02:33.567Z,101865.41
2022-10-14T06:05:03.993Z,101868.03
2022-10-14T06:07:32.499Z,101863.59
2022-10-14T06:10:00.593Z,101861.00
2022-10-14T06:12:28.353Z,101868.03
2022-10-14T06:14:56.369Z,101865.41
2022-10-14T06:17:27.130Z,101865.34
2022-10-14T06:19:57.644Z,101872.44
2022-10-14T06:22:31.440Z,101873.31
2022-10-14T06:25:03.973Z,101878.59
2022-10-14T06:27:32.946Z,101869.78
2022-10-14T06:30:00.720Z,101875.03
2022-10-14T06:32:29.104Z,101876.81
2022-10-14T06:34:57.628Z,101880.28
2022-10-14T06:37:25.938Z,101882.09
2022-10-14T06:40:01.146Z,101881.22
2022-10-14T06:42:29.123Z,101882.09
2022-10-14T06:45:05.128Z,101886.47
2022-10-14T06:47:45.981Z,101882.03
2022-10-14T06:50:23.092Z,101887.34
2022-10-14T06:52:53.812Z,101890.88
2022-10-14T06:55:21.775Z,101890.84
2022-10-14T06:57:52.662Z,101895.28
2022-10-14T07:00:20.776Z,101904.06
2022-10-14T07:02:48.705Z,101909.34
2022-10-14T07:05:20.315Z,101907.63
2022-10-14T07:07:48.079Z,101912.03
2022-10-14T07:10:21.767Z,101920.81
2022-10-14T07:12:49.963Z,101920.88
2022-10-14T07:15:18.287Z,101920.00
2022-10-14T07:17:46.101Z,101925.25
2022-10-14T07:20:13.865Z,101929.66
2022-10-14T07:22:41.528Z,101931.41
2022-10-14T07:25:09.492Z,101934.06
2022-10-14T07:27:36.995Z,101934.94
2022-10-14T07:30:06.144Z,101943.78
2022-10-14T07:32:37.595Z,101945.53
2022-10-14T07:35:07.814Z,101947.34
2022-10-14T07:37:37.168Z,101943.81
2022-10-14T07:40:07.856Z,101942.06
2022-10-14T07:42:39.424Z,101938.53
2022-10-14T07:45:08.002Z,101939.44
2022-10-14T07:47:35.952Z,101938.59
2022-10-14T07:50:07.564Z,101948.25
2022-10-14T07:52:36.389Z,101949.13
2022-10-14T07:55:05.759Z,101949.13
2022-10-14T07:57:33.882Z,101950.09
2022-10-14T08:00:01.945Z,101939.59
2022-10-14T08:02:42.143Z,101944.91
2022-10-14T08:07:59.296Z,101938.78
2022-10-14T08:10:28.950Z,101946.66
2022-10-14T08:12:58.241Z,101940.38
2022-10-14T08:15:29.091Z,101939.34
2022-10-14T08:17:57.474Z,101941.75
2022-10-14T08:20:25.482Z,101952.13
2022-10-14T08:22:53.180Z,101948.38
2022-10-14T08:25:20.967Z,101948.38
2022-10-14T08:27:51.790Z,101943.78
2022-10-14T08:30:20.855Z,101945.41
2022-10-14T08:32:49.065Z,101946.91
2022-10-14T08:35:16.932Z,101956.34
2022-10-14T08:37:44.905Z,101960.56
2022-10-14T08:40:17.472Z,101959.50
2022-10-14T08:42:55.170Z,101975.09
2022-10-14T08:45:35.418Z,101972.28
2022-10-14T08:48:11.593Z,101978.16
2022-10-14T08:50:54.101Z,101977.78
2022-10-14T08:53:39.170Z,101974.06
2022-10-14T08:56:09.562Z,101971.09
2022-10-14T08:58:46.941Z,101969.03
2022-10-14T09:01:33.743Z,101960.22
2022-10-14T09:04:07.949Z,101959.00
2022-10-14T09:06:46.764Z,101950.00
2022-10-14T09:09:45.833Z,101961.16
2022-10-14T09:12:33.734Z,101964.47
2022-10-14T09:15:34.966Z,101972.88
2022-10-14T09:18:26.022Z,101974.81
2022-10-14T09:20:57.881Z,101974.81
2022-10-14T09:26:40.947Z,101971.00
2022-10-14T09:29:53.692Z,101966.13
2022-10-14T09:32:29.494Z,101971.34
2022-10-14T09:35:01.520Z,101964.91
2022-10-14T09:37:34.129Z,101962.66
2022-10-14T09:40:17.460Z,101961.97
2022-10-14T09:42:52.719Z,101957.81
2022-10-14T09:45:25.483Z,101957.50
2022-10-14T09:48:05.811Z,101946.72
2022-10-14T09:50:49.486Z,101941.28
2022-10-14T09:53:48.685Z,101934.50
2022-10-14T09:56:20.784Z,101935.59
2022-10-14T09:58:57.278Z,101934.94
2022-10-14T10:01:32.328Z,101935.53
2022-10-14T10:04:33.090Z,101938.38
2022-10-14T10:07:07.049Z,101934.69
2022-10-14T10:09:35.339Z,101928.03
2022-10-14T10:12:33.554Z,101926.88
2022-10-14T10:15:06.003Z,101921.75
2022-10-14T10:17:38.999Z,101923.53
2022-10-14T10:20:24.292Z,101921.81
2022-10-14T10:22:52.751Z,101931.44
2022-10-14T10:25:26.825Z,101926.28
2022-10-14T10:27:58.435Z,101932.19
2022-10-14T10:30:29.543Z,101924.03
2022-10-14T10:33:27.348Z,101916.66
2022-10-14T10:36:24.881Z,101927.44
2022-10-14T10:39:17.712Z,101924.38
2022-10-14T10:41:54.615Z,101924.25
2022-10-14T10:44:35.725Z,101925.75
2022-10-14T10:47:46.209Z,101930.91
2022-10-14T10:50:27.791Z,101930.16
2022-10-14T10:53:14.632Z,101927.41
2022-10-14T10:56:01.346Z,101931.66
2022-10-14T10:59:05.315Z,101924.44
2022-10-14T11:01:38.788Z,101931.56
2022-10-14T11:04:43.224Z,101922.28
2022-10-14T11:07:58.547Z,101923.94
2022-10-14T11:11:04.976Z,101924.28
2022-10-14T11:14:18.145Z,101913.50
2022-10-14T11:17:10.640Z,101910.28
2022-10-14T11:19:43.929Z,101910.50
2022-10-14T11:22:29.414Z,101906.09
2022-10-14T11:25:28.060Z,101907.09
2022-10-14T11:28:31.608Z,101903.41
2022-10-14T11:31:04.082Z,101903.75
2022-10-14T11:33:44.999Z,101892.41
2022-10-14T11:36:25.522Z,101896.63
2022-10-14T11:39:21.791Z,101903.09
2022-10-14T11:42:05.374Z,101895.22
2022-10-14T11:44:38.671Z,101898.75
2022-10-14T11:47:11.507Z,101898.97
2022-10-14T11:50:06.267Z,101881.78
2022-10-14T11:52:40.888Z,101886.28
2022-10-14T11:55:32.445Z,101877.72
2022-10-14T11:58:07.024Z,101876.38
2022-10-14T12:00:37.724Z,101871.41
2022-10-14T12:03:44.786Z,101870.88
2022-10-14T12:06:50.297Z,101867.66
2022-10-14T12:09:51.718Z,101855.22
2022-10-14T12:12:37.280Z,101862.47
2022-10-14T12:15:25.879Z,101854.56
2022-10-14T12:18:07.812Z,101863.50
2022-10-14T12:21:17.779Z,101861.06
2022-10-14T12:24:11.442Z,101850.84
2022-10-14T12:26:58.816Z,101841.25
2022-10-14T12:29:36.989Z,101840.00
2022-10-14T12:32:13.679Z,101839.53
2022-10-14T12:34:44.152Z,101835.34
2022-10-14T12:37:32.727Z,101829.09
2022-10-14T12:40:19.387Z,101814.41
2022-10-14T12:43:16.444Z,101819.16
2022-10-14T12:46:22.198Z,101817.59
2022-10-14T12:49:03.273Z,101809.47
2022-10-14T12:52:02.984Z,101813.22
2022-10-14T12:54:49.405Z,101825.03
2022-10-14T12:57:34.367Z,101819.25
2022-10-14T13:00:27.659Z,101807.38
2022-10-14T13:03:10.119Z,101807.06
2022-10-14T13:05:56.810Z,101812.69
2022-10-14T13:08:29.779Z,101809.41
2022-10-14T13:11:20.925Z,101813.00
2022-10-14T13:14:00.686Z,101806.44
2022-10-14T13:16:31.158Z,101805.28
2022-10-14T13:19:09.910Z,101796.31
2022-10-14T13:21:47.097Z,101796.75
2022-10-14T13:24:45.986Z,101793.19
2022-10-14T13:28:06.714Z,101799.06
2022-10-14T13:30:49.268Z,101800.16
2022-10-14T13:43:31.696Z,101795.47
2022-10-14T13:46:05.375Z,101794.88
2022-10-14T13:48:40.711Z,101797.06
2022-10-14T13:51:32.029Z,101788.88
2022-10-14T13:54:19.124Z,101784.66
2022-10-14T14:02:55.108Z,101787.00
2022-10-14T14:05:35.481Z,101774.97
2022-10-14T14:08:41.157Z,101779.22
2022-10-14T14:11:43.304Z,101778.63
2022-10-14T14:14:41.388Z,101780.91
2022-10-14T14:17:28.960Z,101784.66
2022-10-14T14:20:12.691Z,101779.56
2022-10-14T14:22:48.439Z,101781.78
2022-10-14T14:25:34.533Z,101769.47
2022-10-14T14:28:23.467Z,101776.53
2022-10-14T14:31:01.802Z,101779.63
2022-10-14T14:33:34.633Z,101775.81
2022-10-14T14:36:05.527Z,101773.47
2022-10-14T14:38:36.261Z,101771.69
2022-10-14T14:41:20.774Z,101775.22
2022-10-14T14:44:24.011Z,101770.59
2022-10-14T14:46:47.860Z,101774.84
2022-10-14T14:49:26.658Z,101777.78
2022-10-14T14:51:55.471Z,101777.03
2022-10-14T14:54:24.645Z,101772.19
2022-10-14T14:57:00.985Z,101774.63
2022-10-14T14:59:33.384Z,101770.22
2022-10-14T15:02:03.701Z,101773.06
2022-10-14T15:04:35.776Z,101778.03
2022-10-14T15:07:20.132Z,101773.44
2022-10-14T15:09:57.099Z,101765.75
2022-10-14T15:12:25.767Z,101758.28
2022-10-14T15:14:58.407Z,101758.03
2022-10-14T15:17:38.670Z,101759.22
2022-10-14T15:20:12.492Z,101748.84
2022-10-14T15:22:44.222Z,101756.56
2022-10-14T15:25:38.234Z,101747.41
2022-10-14T15:28:32.862Z,101752.81
2022-10-14T15:31:09.739Z,101747.69
2022-10-14T15:33:39.452Z,101743.50
2022-10-14T15:36:11.560Z,101739.09
2022-10-14T15:38:45.737Z,101737.19
2022-10-14T15:41:19.900Z,101737.75
2022-10-14T15:43:49.295Z,101738.03
2022-10-14T15:46:36.423Z,101742.38
2022-10-14T15:49:12.302Z,101750.16
2022-10-14T15:51:43.763Z,101741.06
2022-10-14T15:54:13.436Z,101740.69
2022-10-14T15:56:41.368Z,101741.75
2022-10-14T15:59:16.016Z,101744.69
2022-10-14T16:01:45.984Z,101743.13
2022-10-14T16:04:25.280Z,101732.78
2022-10-14T16:06:57.084Z,101737.25
2022-10-14T16:09:28.072Z,101743.25
2022-10-14T16:11:58.474Z,101745.41
2022-10-14T16:14:30.358Z,101740.72
2022-10-14T16:16:58.502Z,101756.06
2022-10-14T16:19:25.971Z,101745.19
2022-10-14T16:21:53.633Z,101752.47
2022-10-14T16:24:25.866Z,101753.81
2022-10-14T16:27:03.783Z,101755.88
2022-10-14T16:29:45.884Z,101761.31
2022-10-14T16:32:25.108Z,101768.59
2022-10-14T16:35:07.496Z,101756.44
2022-10-14T16:37:52.076Z,101756.06
2022-10-14T16:40:41.087Z,101746.59
2022-10-14T16:43:23.237Z,101759.22
2022-10-14T16:46:03.989Z,101748.97
2022-10-14T16:48:41.640Z,101750.00
2022-10-14T16:51:25.482Z,101760.03
2022-10-14T16:54:26.011Z,101761.28
2022-10-14T16:57:19.177Z,101757.84
2022-10-14T17:00:10.019Z,101754.16
2022-10-14T17:03:08.306Z,101757.25
2022-10-14T17:05:41.074Z,101768.94
2022-10-14T17:08:39.844Z,101762.78
2022-10-14T17:11:22.093Z,101763.97
2022-10-14T17:14:14.634Z,101763.72
2022-10-14T17:16:59.021Z,101755.00
2022-10-14T17:19:45.303Z,101754.09
2022-10-14T17:22:41.422Z,101749.59
2022-10-14T17:25:20.629Z,101750.56
2022-10-14T17:27:56.341Z,101766.00
2022-10-14T17:30:51.659Z,101757.84
2022-10-14T17:34:29.702Z,101755.44
2022-10-14T17:37:31.597Z,101768.00
2022-10-14T17:40:33.607Z,101767.19
2022-10-14T17:43:16.364Z,101768.72
2022-10-14T17:45:52.116Z,101771.66
2022-10-14T17:48:37.407Z,101763.72
2022-10-14T17:51:35.356Z,101768.97
2022-10-14T17:54:23.103Z,101781.22
2022-10-14T17:57:07.805Z,101783.13
2022-10-14T18:00:06.438Z,101784.88
2022-10-14T18:02:59.555Z,101787.50
2022-10-14T18:05:37.131Z,101791.03
2022-10-14T18:08:19.346Z,101785.75
2022-10-14T18:11:17.125Z,101793.81
2022-10-14T18:14:04.960Z,101791.28
2022-10-14T18:16:50.203Z,101795.69
2022-10-14T18:19:27.846Z,101806.06
2022-10-14T18:22:07.064Z,101797.34
2022-10-14T18:24:43.623Z,101800.03
2022-10-14T18:27:36.374Z,101800.91
2022-10-14T18:30:15.052Z,101812.47
2022-10-14T18:32:52.622Z,101806.13
2022-10-14T18:35:34.865Z,101812.63
2022-10-14T18:38:24.629Z,101810.72
2022-10-14T18:41:22.326Z,101809.81
2022-10-14T18:44:32.223Z,101806.28
2022-10-14T18:50:10.070Z,101806.47
2022-10-14T19:05:48.857Z,101803.06
2022-10-14T19:08:55.893Z,101808.38
2022-10-14T19:11:58.282Z,101806.50
2022-10-14T19:14:41.078Z,101805.84
2022-10-14T19:17:16.501Z,101801.31
2022-10-14T19:20:07.438Z,101799.63
2022-10-14T19:22:45.505Z,101796.13
2022-10-14T19:25:45.156Z,101809.47
2022-10-14T19:28:56.536Z,101805.91
2022-10-14T19:31:37.515Z,101813.91
2022-10-14T19:34:28.137Z,101808.56
2022-10-14T19:37:13.793Z,101812.13
2022-10-14T19:40:08.321Z,101814.78
2022-10-14T19:42:54.659Z,101808.47
2022-10-14T19:45:30.840Z,101813.81
2022-10-14T19:48:20.487Z,101821.75
2022-10-14T19:50:57.456Z,101815.69
2022-10-14T19:53:34.701Z,101810.34
2022-10-14T19:56:14.826Z,101805.06
2022-10-14T19:59:26.127Z,101806.94
2022-10-14T20:02:28.710Z,101819.31
2022-10-14T20:08:30.709Z,101821.00
2022-10-14T20:11:31.598Z,101830.81
2022-10-14T20:14:28.793Z,101830.00
2022-10-14T20:20:13.062Z,101833.50
2022-10-14T20:22:55.546Z,101837.91
2022-10-14T20:28:47.005Z,101837.03
2022-10-14T20:31:34.287Z,101825.59
2022-10-14T20:34:23.043Z,101834.38
2022-10-14T20:44:24.526Z,101816.94
2022-10-14T20:47:03.273Z,101816.13
2022-10-14T20:49:38.722Z,101815.25
2022-10-14T20:52:51.287Z,101811.69
2022-10-14T20:55:33.770Z,101814.41
2022-10-14T20:58:04.183Z,101807.34
2022-10-14T21:00:35.660Z,101816.25
2022-10-14T21:03:08.169Z,101824.16
2022-10-14T21:05:38.493Z,101813.56
2022-10-14T21:08:11.632Z,101824.16
2022-10-14T21:10:39.187Z,101816.22
2022-10-14T21:13:09.618Z,101813.53
2022-10-14T21:15:41.943Z,101817.06
2022-10-14T21:18:10.799Z,101808.31
2022-10-14T21:20:43.507Z,101803.84
2022-10-14T21:23:16.308Z,101804.78
2022-10-14T21:25:47.503Z,101815.34
2022-10-14T21:28:18.877Z,101812.75
2022-10-14T21:30:52.237Z,101808.34
2022-10-14T21:33:24.307Z,101812.75
2022-10-14T21:35:55.756Z,101818.06
2022-10-14T21:38:26.778Z,101806.56
2022-10-14T21:41:02.300Z,101807.50
2022-10-14T21:43:48.659Z,101799.53
2022-10-14T21:46:22.446Z,101801.41
2022-10-14T21:48:57.961Z,101802.34
2022-10-14T21:51:32.120Z,101798.81
2022-10-14T21:54:12.678Z,101798.78
2022-10-14T21:56:42.871Z,101796.97
2022-10-14T21:59:11.605Z,101800.53
2022-10-14T22:01:42.058Z,101791.75
2022-10-14T22:04:21.430Z,101793.53
2022-10-14T22:06:50.917Z,101786.47
2022-10-14T22:09:18.204Z,101790.03
2022-10-14T22:11:45.604Z,101788.31
2022-10-14T22:14:17.243Z,101788.41
2022-10-14T22:16:55.236Z,101789.31
2022-10-14T22:19:25.145Z,101790.97
2022-10-14T22:21:52.543Z,101788.38
2022-10-14T22:24:19.632Z,101781.34
2022-10-14T22:26:52.434Z,101787.56
2022-10-14T22:29:22.967Z,101790.19
2022-10-14T22:31:53.289Z,101782.31
2022-10-14T22:34:22.683Z,101776.16
2022-10-14T22:36:49.782Z,101784.97
2022-10-14T22:39:17.857Z,101779.69
2022-10-14T22:41:47.536Z,101782.31
2022-10-14T22:44:14.691Z,101775.28
2022-10-14T22:46:44.897Z,101785.06
2022-10-14T22:49:13.155Z,101775.31
2022-10-14T22:51:43.915Z,101774.44
2022-10-14T22:54:13.309Z,101774.47
2022-10-14T22:56:43.666Z,101763.91
2022-10-14T22:59:14.266Z,101771.88
2022-10-14T23:01:46.063Z,101762.19
2022-10-14T23:04:16.659Z,101763.97
2022-10-14T23:06:49.424Z,101768.41
2022-10-14T23:09:16.811Z,101770.19
2022-10-14T23:11:47.317Z,101758.72
2022-10-14T23:14:17.184Z,101769.31
2022-10-14T23:16:46.967Z,101761.38
2022-10-14T23:19:15.300Z,101754.34
2022-10-14T23:21:45.795Z,101752.63
2022-10-14T23:24:12.899Z,101750.84
2022-10-14T23:26:43.147Z,101749.94
2022-10-14T23:29:11.930Z,101746.47
2022-10-14T23:31:40.927Z,101743.03
2022-10-14T23:34:12.293Z,101736.84
2022-10-14T23:36:39.908Z,101743.03
2022-10-14T23:39:07.392Z,101747.44
2022-10-14T23:41:34.736Z,101751.88
2022-10-14T23:44:01.962Z,101752.78
2022-10-14T23:46:29.386Z,101747.47
2022-10-14T23:49:06.792Z,101757.19
2022-10-14T23:51:43.897Z,101751.88
2022-10-14T23:54:13.166Z,101753.66
2022-10-14T23:56:40.375Z,101747.50
2022-10-14T23:59:08.381Z,101745.75
